Flight Track Log - Related Links

Times and Time Zones

All times are in EDT time to prevent confusion due to time zone crossing. See the N400CE flight status page for this flight to view local times or setup timezone preferences in your user account.

Time Position Orientation Groundspeed Altitude Reporting Facility
EDT Latitude Longitude Course Direction KTS MPH feet Rate Location/Type
Mon 11:42:36 AM 28.0333 -82.6500 196° South 168 193 2,100  Level Tampa TRACON
Mon 11:43:42 AM 27.9833 -82.6667 196° South 175 201 1,800 -143 Descending Tampa TRACON
Mon 11:44:42 AM 27.9333 -82.6667 180° South 168 193 1,800 -111 Level Tampa TRACON
Mon 11:45:30 AM 27.8833 -82.6500 164° South 168 193 1,600 -200 Descending Tampa TRACON
Mon 11:46:42 AM 27.8333 -82.6500 180° South 171 197 1,400 -143 Descending Tampa TRACON
Mon 11:47:36 AM 27.8000 -82.6500 180° South 158 182 1,300 -450 Descending Tampa TRACON
Mon 11:48:42 AM 27.7667 -82.6500 180° South 91 105 500 -10 Descending Tampa TRACON
Mon 12:27:27 PM 27.7833 -82.6667 291° West 143 165 900 33 Climbing Tampa TRACON
Mon 12:28:00 PM 29.2281 -82.9528 349° North  Level FlightAware Approximate
Mon 12:28:33 PM 27.7833 -82.7167 270° West 145 167 1,800  Level Tampa TRACON
Mon 12:29:00 PM 29.2658 -82.9615 349° North  Level FlightAware Approximate
Mon 12:29:27 PM 27.7833 -82.7500 270° West 143 165 2,500  Level Tampa TRACON
Mon 12:30:00 PM 29.3034 -82.9701 349° North  Level FlightAware Approximate
Mon 12:30:27 PM 27.8000 -82.8000 291° West 153 176 3,100  Level Tampa TRACON
Mon 12:31:00 PM 29.3411 -82.9788 349° North  Level FlightAware Approximate
Mon 12:31:27 PM 27.8500 -82.8000 360° North 149 171 3,800  Level Tampa TRACON
Mon 12:32:21 PM 27.8833 -82.8167 336° Northwest 154 177 4,000 263 Climbing Tampa TRACON
Mon 12:33:21 PM 27.9333 -82.8167 360° North 177 204 4,300 381 Climbing Tampa TRACON
Mon 12:34:27 PM 27.9833 -82.8333 344° North 166 191 4,800 476 Climbing Tampa TRACON
Mon 12:35:27 PM 28.0167 -82.8333 360° North 159 183 5,300 421 Climbing Tampa TRACON
Mon 12:36:21 PM 28.0667 -82.8500 344° North 161 185 5,600 421 Climbing Tampa TRACON
Mon 12:37:21 PM 28.1000 -82.8500 360° North 158 182 6,100 421 Climbing Tampa TRACON
Mon 12:38:15 PM 28.1500 -82.8500 360° North 155 178 6,400 411 Climbing Tampa TRACON
Mon 12:39:47 PM 28.2142 -82.8431 North 159 183 7,100 414 Climbing Miami Center
Mon 12:40:40 PM 28.2500 -82.8456 356° North 158 182 7,400 425 Climbing Jacksonville Center
Mon 12:41:40 PM 28.2939 -82.8456 360° North 158 182 7,900 450 Climbing Jacksonville Center
Mon 12:42:40 PM 28.3397 -82.8453 360° North 158 182 8,300 450 Climbing Jacksonville Center
Mon 12:43:40 PM 28.3836 -82.8572 347° North 158 182 8,800 550 Climbing Jacksonville Center
Mon 12:44:40 PM 28.4275 -82.8642 352° North 158 182 9,400 500 Climbing Jacksonville Center
Mon 12:45:40 PM 28.4733 -82.8714 352° North 163 188 9,800 400 Climbing Jacksonville Center
Mon 12:46:40 PM 28.5192 -82.8808 350° North 163 188 10,200 450 Climbing Jacksonville Center
Mon 12:47:40 PM 28.5631 -82.8903 349° North 163 188 10,700 500 Climbing Jacksonville Center
Mon 12:48:40 PM 28.6111 -82.8950 355° North 163 188 11,200 450 Climbing Jacksonville Center
Mon 12:49:40 PM 28.6528 -82.9019 352° North 163 188 11,600 450 Climbing Jacksonville Center
Mon 12:50:40 PM 28.6947 -82.9067 354° North 163 188 12,100 500 Climbing Jacksonville Center
Mon 12:51:40 PM 28.7406 -82.9139 352° North 163 188 12,600 450 Climbing Jacksonville Center
Mon 12:52:40 PM 28.7844 -82.9211 352° North 163 188 13,000 500 Climbing Jacksonville Center
Mon 12:53:40 PM 28.8303 -82.9281 352° North 163 188 13,600 450 Climbing Jacksonville Center
Mon 12:54:40 PM 28.8761 -82.9353 352° North 163 188 13,900 200 Climbing Jacksonville Center
Mon 12:55:40 PM 28.9222 -82.9425 352° North 163 188 14,000 100 Climbing Jacksonville Center
Mon 12:56:40 PM 28.9722 -82.9472 355° North 163 188 14,100 50 Climbing Jacksonville Center
Mon 12:57:40 PM 29.0222 -82.9519 355° North 169 194 14,100  Level Jacksonville Center
Mon 12:58:40 PM 29.0703 -82.9567 355° North 169 194 14,100  Level Jacksonville Center
Mon 12:59:40 PM 29.1161 -82.9758 340° North 169 194 14,100  Level Jacksonville Center
Mon 01:00:40 PM 29.1642 -82.9925 343° North 174 200 14,100  Level Jacksonville Center
Mon 01:01:40 PM 29.2122 -83.0092 343° North 174 200 14,100 -50 Level Jacksonville Center
Mon 01:02:40 PM 29.2603 -83.0258 343° North 174 200 14,000 -50 Descending Jacksonville Center
Mon 01:03:40 PM 29.3061 -83.0403 345° North 174 200 14,000  Level Jacksonville Center
Mon 01:04:40 PM 29.3542 -83.0569 343° North 174 200 14,000  Level Jacksonville Center
Mon 01:05:40 PM 29.4000 -83.0736 342° North 169 194 14,000  Level Jacksonville Center
Mon 01:06:40 PM 29.4458 -83.0906 342° North 169 194 14,000 50 Level Jacksonville Center
Mon 01:07:40 PM 29.4958 -83.1097 342° North 169 194 14,100 50 Climbing Jacksonville Center
Mon 01:08:40 PM 29.5461 -83.1314 339° North 174 200 14,100  Level Jacksonville Center
Mon 01:09:40 PM 29.5939 -83.1481 343° North 180 207 14,100  Level Jacksonville Center
Mon 01:10:40 PM 29.6400 -83.1650 342° North 180 207 14,100  Level Jacksonville Center
Mon 01:11:40 PM 29.6878 -83.1842 341° North 180 207 14,100  Level Jacksonville Center
Mon 01:12:40 PM 29.7339 -83.2011 342° North 175 201 14,100 -50 Level Jacksonville Center
Mon 01:13:40 PM 29.7797 -83.2181 342° North 175 201 14,000 -50 Descending Jacksonville Center
Mon 01:14:40 PM 29.8256 -83.2372 340° North 170 196 14,000  Level Jacksonville Center
Mon 01:15:40 PM 29.8756 -83.2542 344° North 177 204 14,000  Level Jacksonville Center
Mon 01:16:40 PM 29.9278 -83.2714 344° North 177 204 14,000  Level Jacksonville Center
Mon 01:17:40 PM 29.9756 -83.2906 341° North 177 204 14,000  Level Jacksonville Center
Mon 01:18:40 PM 30.0217 -83.3100 340° North 177 204 14,000  Level Jacksonville Center
Mon 01:19:40 PM 30.0694 -83.3247 345° North 177 204 14,000  Level Jacksonville Center
Mon 01:20:40 PM 30.1175 -83.3442 341° North 177 204 14,000  Level Jacksonville Center
Mon 01:21:40 PM 30.1656 -83.3611 343° North 177 204 14,000  Level Jacksonville Center
Mon 01:22:40 PM 30.2133 -83.3806 341° North 172 198 14,000  Level Jacksonville Center
Mon 01:23:40 PM 30.2614 -83.3975 343° North 172 198 14,000  Level Jacksonville Center
Mon 01:24:40 PM 30.3072 -83.4147 342° North 172 198 14,000  Level Jacksonville Center
Mon 01:25:40 PM 30.3553 -83.4342 341° North 172 198 14,000  Level Jacksonville Center
Mon 01:25:58 PM 30.3678 -83.4392 341° North 180 207 14,000  Level Jacksonville Center
Mon 01:26:40 PM 30.4031 -83.4489 347° North 172 198 14,000  Level Jacksonville Center
Mon 01:26:59 PM 30.4136 -83.4539 338° Northwest 178 205 14,000  Level Jacksonville Center
Mon 01:27:40 PM 30.4511 -83.4661 344° North 172 198 14,000  Level Jacksonville Center
Mon 01:28:00 PM 30.4636 -83.4733 334° Northwest 179 206 14,000  Level Jacksonville Center
Mon 01:28:40 PM 30.4969 -83.4856 342° North 172 198 14,000  Level Jacksonville Center
Mon 01:29:00 PM 30.5094 -83.4906 341° North 177 204 14,000  Level Jacksonville Center
Mon 01:29:40 PM 30.5447 -83.5006 346° North 172 198 14,000  Level Jacksonville Center
Mon 01:30:01 PM 30.5572 -83.5078 334° Northwest 177 204 14,000  Level Jacksonville Center
Mon 01:30:40 PM 30.5928 -83.5175 347° North 172 198 14,000  Level Jacksonville Center
Mon 01:31:08 PM 30.6114 -83.5275 335° Northwest 177 204 14,000  Level Jacksonville Center
Mon 01:31:40 PM 30.6386 -83.5347 347° North 172 198 14,000  Level Jacksonville Center
Mon 01:32:08 PM 30.6575 -83.5444 336° Northwest 178 205 14,000  Level Jacksonville Center
Mon 01:32:40 PM 30.6867 -83.5497 351° North 172 198 14,000  Level Jacksonville Center
Mon 01:33:09 PM 30.7075 -83.5642 329° Northwest 178 205 14,000  Level Jacksonville Center
Mon 01:33:40 PM 30.7242 -83.5669 352° North 172 198 14,000  Level Jacksonville Center
Mon 01:34:10 PM 30.7511 -83.5814 335° Northwest 178 205 14,000  Level Jacksonville Center
Mon 01:34:40 PM 30.7783 -83.5889 347° North 180 207 14,000  Level Jacksonville Center
Mon 01:35:10 PM 30.8011 -83.5989 339° North 179 206 14,000  Level Jacksonville Center
Mon 01:35:40 PM 30.8261 -83.6039 350° North 186 214 14,000  Level Jacksonville Center
Mon 01:36:40 PM 30.8742 -83.6236 341° North 186 214 14,000  Level Jacksonville Center
Mon 01:37:40 PM 30.9200 -83.6408 342° North 180 207 14,000  Level Jacksonville Center
Mon 01:38:40 PM 30.9678 -83.6631 338° Northwest 180 207 14,000  Level Jacksonville Center
Mon 01:39:40 PM 31.0158 -83.6806 343° North 180 207 14,000  Level Jacksonville Center
Mon 01:40:40 PM 31.0617 -83.7003 340° North 180 207 14,000  Level Jacksonville Center
Mon 01:41:40 PM 31.1094 -83.7200 341° North 180 207 14,000  Level Jacksonville Center
Mon 01:42:40 PM 31.1572 -83.7400 340° North 180 207 14,000  Level Jacksonville Center
Mon 01:43:40 PM 31.2031 -83.7622 337° Northwest 180 207 14,000  Level Jacksonville Center
Mon 01:44:40 PM 31.2511 -83.7819 341° North 175 201 14,000  Level Jacksonville Center
Mon 01:45:40 PM 31.2967 -83.8042 337° Northwest 175 201 14,000  Level Jacksonville Center
Mon 01:46:40 PM 31.3447 -83.8242 340° North 175 201 14,000  Level Jacksonville Center
Mon 01:47:40 PM 31.3925 -83.8442 340° North 175 201 14,000  Level Jacksonville Center
Mon 01:48:40 PM 31.4403 -83.8642 340° North 175 201 14,000  Level Jacksonville Center
Mon 01:49:40 PM 31.4819 -83.8817 340° North 175 201 14,000  Level Jacksonville Center
Mon 01:50:40 PM 31.5300 -83.9017 340° North 175 201 14,000  Level Jacksonville Center
Mon 01:51:40 PM 31.5797 -83.9217 341° North 175 201 14,000  Level Jacksonville Center
Mon 01:52:40 PM 31.6278 -83.9442 338° Northwest 175 201 14,000 47 Level Jacksonville Center
Mon 01:53:48 PM 31.6861 -83.9681 341° North 174 200 14,100 47 Climbing Atlanta Center
Mon 01:54:48 PM 31.7342 -83.9900 339° North 174 200 14,100  Level Atlanta Center
Mon 01:55:48 PM 31.7822 -84.0094 341° North 174 200 14,100  Level Atlanta Center
Mon 01:56:48 PM 31.8300 -84.0292 341° North 179 206 14,100  Level Atlanta Center
Mon 01:57:48 PM 31.8803 -84.0511 340° North 179 206 14,100  Level Atlanta Center
Mon 01:58:48 PM 31.9283 -84.0731 339° North 179 206 14,100 -50 Level Atlanta Center
Mon 01:59:48 PM 31.9761 -84.0903 343° North 184 212 14,000 -50 Descending Atlanta Center
Mon 02:00:48 PM 32.0264 -84.1125 339° North 184 212 14,000 -50 Level Atlanta Center
Mon 02:01:48 PM 32.0722 -84.1319 340° North 184 212 13,900 -50 Descending Atlanta Center
Mon 02:02:48 PM 32.1222 -84.1517 342° North 189 217 13,900  Level Atlanta Center
Mon 02:03:48 PM 32.1722 -84.1714 342° North 189 217 13,900  Level Atlanta Center
Mon 02:04:48 PM 32.2203 -84.1911 341° North 189 217 13,900  Level Atlanta Center
Mon 02:05:48 PM 32.2703 -84.2083 344° North 189 217 13,900  Level Atlanta Center
Mon 02:06:48 PM 32.3183 -84.2256 343° North 189 217 13,900  Level Atlanta Center
Mon 02:07:48 PM 32.3683 -84.2431 344° North 189 217 13,900  Level Atlanta Center
Mon 02:08:48 PM 32.4186 -84.2578 346° North 189 217 13,900 -250 Level Atlanta Center
Mon 02:09:48 PM 32.4728 -84.2728 347° North 189 217 13,400 -600 Descending Atlanta Center
Mon 02:10:48 PM 32.5269 -84.2900 345° North 189 217 12,700 -1,000 Descending Atlanta Center
Mon 02:11:48 PM 32.5833 -84.3050 347° North 196 226 11,400 -1,400 Descending Atlanta Center
Mon 02:12:48 PM 32.6458 -84.3200 349° North 206 237 9,900 -1,350 Descending Atlanta Center
Mon 02:13:48 PM 32.7044 -84.3300 352° North 212 244 8,700 -1,050 Descending Atlanta Center
Mon 02:14:48 PM 32.7628 -84.3403 352° North 212 244 7,800 -950 Descending Atlanta Center
Mon 02:15:48 PM 32.8169 -84.3503 351° North 212 244 6,800 -900 Descending Atlanta Center
Mon 02:16:48 PM 32.8775 -84.3653 348° North 217 250 6,000 -950 Descending Atlanta Center
Mon 02:17:48 PM 32.9339 -84.3753 352° North 206 237 4,900 -649 Descending Atlanta Center
Mon 02:19:53 PM 33.0333 -84.4000 348° North 171 197 4,000 -302 Descending Atlanta TRACON
Mon 02:20:47 PM 33.0833 -84.4167 344° North 167 192 4,000  Level Atlanta TRACON
Mon 02:21:47 PM 33.1167 -84.4333 337° Northwest 170 196 4,000  Level Atlanta TRACON
Mon 02:22:47 PM 33.1667 -84.4500 344° North 173 199 4,000 -200 Level Atlanta TRACON
Mon 02:23:47 PM 33.2167 -84.4667 344° North 179 206 3,600 -400 Descending Atlanta TRACON

Login

Don't have an account? Register now (free) for customized features, flight alerts, and more!